createdAt,value
2022-10-21T00:02:02.646Z,61.60
2022-10-21T00:04:32.175Z,62.25
2022-10-21T00:07:01.220Z,62.76
2022-10-21T00:09:28.267Z,62.92
2022-10-21T00:11:55.299Z,63.96
2022-10-21T00:14:23.599Z,64.54
2022-10-21T00:16:50.946Z,63.03
2022-10-21T00:19:18.326Z,62.31
2022-10-21T00:21:47.517Z,62.17
2022-10-21T00:24:17.004Z,62.10
2022-10-21T00:26:44.205Z,61.18
2022-10-21T00:29:11.441Z,61.37
2022-10-21T00:31:39.163Z,62.29
2022-10-21T00:34:06.245Z,63.44
2022-10-21T00:36:33.393Z,63.76
2022-10-21T00:39:00.329Z,63.76
2022-10-21T00:41:27.866Z,61.69
2022-10-21T00:44:00.203Z,60.97
2022-10-21T00:46:38.746Z,60.94
2022-10-21T00:49:08.169Z,61.19
2022-10-21T00:51:36.276Z,62.25
2022-10-21T00:54:03.338Z,63.03
2022-10-21T00:56:31.229Z,63.30
2022-10-21T00:58:59.211Z,63.40
2022-10-21T01:01:26.461Z,63.48
2022-10-21T01:03:53.665Z,63.52
2022-10-21T01:06:22.263Z,61.81
2022-10-21T01:08:50.664Z,61.22
2022-10-21T01:11:19.001Z,61.14
2022-10-21T01:14:15.148Z,61.18
2022-10-21T01:16:48.430Z,61.57
2022-10-21T01:19:57.706Z,61.91
2022-10-21T01:22:43.112Z,62.62
2022-10-21T01:25:30.101Z,63.46
2022-10-21T01:28:06.208Z,64.04
2022-10-21T01:30:43.975Z,63.17
2022-10-21T01:33:23.674Z,61.08
2022-10-21T01:35:58.149Z,60.64
2022-10-21T01:38:40.618Z,60.82
2022-10-21T01:41:17.696Z,61.28
2022-10-21T01:44:06.456Z,61.38
2022-10-21T01:46:49.317Z,61.84
2022-10-21T01:49:23.952Z,62.24
2022-10-21T01:51:52.108Z,61.83
2022-10-21T01:54:22.394Z,62.73
2022-10-21T01:56:49.296Z,63.47
2022-10-21T01:59:16.558Z,62.02
2022-10-21T02:01:43.604Z,60.78
2022-10-21T02:04:11.653Z,60.50
2022-10-21T02:06:39.717Z,61.67
2022-10-21T02:09:06.904Z,61.75
2022-10-21T02:11:35.851Z,62.69
2022-10-21T02:14:08.929Z,61.83
2022-10-21T02:16:38.159Z,62.16
2022-10-21T02:19:09.814Z,63.13
2022-10-21T02:21:39.385Z,63.81
2022-10-21T02:24:19.046Z,63.16
2022-10-21T02:26:46.392Z,63.28
2022-10-21T02:29:13.573Z,63.15
2022-10-21T02:32:02.095Z,63.26
2022-10-21T02:34:48.161Z,64.19
2022-10-21T02:37:49.982Z,63.11
2022-10-21T02:40:26.628Z,64.37
2022-10-21T02:43:06.309Z,64.68
2022-10-21T02:45:33.797Z,63.97
2022-10-21T02:48:00.791Z,62.87
2022-10-21T02:50:27.732Z,61.88
2022-10-21T02:52:54.727Z,61.37
2022-10-21T02:55:21.625Z,61.49
2022-10-21T02:57:49.095Z,62.27
2022-10-21T03:00:16.613Z,62.45
2022-10-21T03:02:44.510Z,62.29
2022-10-21T03:05:13.101Z,62.39
2022-10-21T03:07:41.610Z,62.87
2022-10-21T03:10:09.380Z,62.92
2022-10-21T03:12:36.303Z,62.05
2022-10-21T03:15:04.506Z,61.37
2022-10-21T03:17:31.615Z,61.57
2022-10-21T03:19:58.722Z,62.02
2022-10-21T03:22:28.520Z,62.23
2022-10-21T03:24:55.513Z,62.83
2022-10-21T03:27:22.622Z,62.92
2022-10-21T03:29:49.776Z,63.92
2022-10-21T03:32:16.723Z,63.91
2022-10-21T03:34:44.047Z,62.83
2022-10-21T03:37:11.212Z,61.93
2022-10-21T03:39:38.124Z,61.36
2022-10-21T03:42:07.794Z,62.59
2022-10-21T03:44:37.112Z,62.46
2022-10-21T03:47:04.210Z,63.32
2022-10-21T03:49:32.212Z,64.69
2022-10-21T03:51:59.264Z,63.95
2022-10-21T03:54:26.808Z,64.68
2022-10-21T03:56:54.017Z,63.52
2022-10-21T03:59:21.003Z,62.40
2022-10-21T04:01:47.985Z,62.09
2022-10-21T04:04:14.969Z,62.40
2022-10-21T04:06:44.202Z,62.25
2022-10-21T04:09:11.135Z,63.41
2022-10-21T04:11:41.717Z,64.17
2022-10-21T04:14:11.619Z,64.49
2022-10-21T04:16:41.693Z,64.13
2022-10-21T04:19:09.502Z,62.57
2022-10-21T04:21:36.502Z,62.09
2022-10-21T04:24:03.632Z,62.34
2022-10-21T04:26:31.320Z,62.29
2022-10-21T04:28:58.559Z,62.71
2022-10-21T04:31:29.801Z,63.10
2022-10-21T04:33:59.456Z,63.32
2022-10-21T04:36:26.610Z,63.75
2022-10-21T04:38:53.584Z,63.57
2022-10-21T04:41:20.499Z,61.98
2022-10-21T04:43:47.570Z,61.66
2022-10-21T04:46:16.979Z,61.39
2022-10-21T04:48:44.527Z,61.78
2022-10-21T04:51:11.835Z,62.29
2022-10-21T04:53:39.266Z,62.84
2022-10-21T04:56:06.963Z,62.96
2022-10-21T04:58:34.224Z,62.98
2022-10-21T05:01:01.231Z,63.64
2022-10-21T05:03:28.332Z,63.70
2022-10-21T05:05:55.321Z,62.14
2022-10-21T05:08:23.864Z,61.24
2022-10-21T05:10:57.235Z,61.06
2022-10-21T05:13:24.282Z,61.40
2022-10-21T05:15:51.741Z,62.64
2022-10-21T05:18:19.368Z,62.77
2022-10-21T05:20:52.889Z,63.33
2022-10-21T05:23:21.469Z,63.51
2022-10-21T05:25:48.570Z,63.16
2022-10-21T05:28:18.374Z,61.30
2022-10-21T05:30:45.427Z,60.01
2022-10-21T05:33:12.371Z,59.97
2022-10-21T05:35:40.760Z,59.66
2022-10-21T05:38:07.793Z,59.37
2022-10-21T05:40:34.694Z,59.43
2022-10-21T05:43:01.798Z,59.72
2022-10-21T05:45:29.238Z,59.78
2022-10-21T05:47:56.238Z,60.14
2022-10-21T05:50:23.741Z,60.39
2022-10-21T05:52:50.839Z,60.46
2022-10-21T05:55:17.801Z,58.57
2022-10-21T05:57:45.031Z,56.38
2022-10-21T06:00:12.822Z,55.61
2022-10-21T06:02:40.123Z,54.94
2022-10-21T06:05:07.980Z,54.58
2022-10-21T06:07:35.237Z,54.21
2022-10-21T06:10:04.424Z,53.76
2022-10-21T06:12:32.009Z,53.19
2022-10-21T06:14:59.129Z,52.62
2022-10-21T06:17:26.542Z,52.15
2022-10-21T06:19:53.450Z,51.57
2022-10-21T06:22:21.101Z,50.87
2022-10-21T06:24:48.168Z,51.06
2022-10-21T06:27:15.206Z,49.94
2022-10-21T06:29:42.131Z,49.61
2022-10-21T06:32:09.105Z,49.12
2022-10-21T06:34:36.084Z,48.63
2022-10-21T06:37:03.304Z,48.77
2022-10-21T06:39:31.576Z,48.83
2022-10-21T06:41:58.534Z,48.59
2022-10-21T06:44:47.595Z,47.68
2022-10-21T06:47:14.656Z,49.01
2022-10-21T06:49:42.770Z,47.97
2022-10-21T06:52:09.943Z,47.67
2022-10-21T06:54:38.805Z,48.26
2022-10-21T06:57:05.833Z,47.40
2022-10-21T06:59:33.060Z,47.15
2022-10-21T07:02:01.582Z,46.75
2022-10-21T07:04:29.277Z,46.71
2022-10-21T07:06:58.751Z,46.60
2022-10-21T07:09:25.833Z,46.70
2022-10-21T07:11:52.879Z,47.21
2022-10-21T07:14:20.419Z,46.85
2022-10-21T07:16:48.331Z,46.83
2022-10-21T07:19:16.548Z,46.28
2022-10-21T07:21:44.722Z,47.17
2022-10-21T07:24:16.286Z,46.17
2022-10-21T07:26:44.752Z,46.36
2022-10-21T07:29:12.241Z,46.58
2022-10-21T07:31:39.629Z,46.61
2022-10-21T07:34:08.244Z,45.93
2022-10-21T07:36:37.762Z,46.08
2022-10-21T07:39:07.910Z,44.65
2022-10-21T07:41:37.920Z,45.10
2022-10-21T07:44:05.967Z,45.06
2022-10-21T07:46:33.693Z,45.39
2022-10-21T07:49:00.632Z,44.60
2022-10-21T07:51:30.209Z,44.91
2022-10-21T07:53:58.710Z,44.86
2022-10-21T07:56:28.199Z,43.96
2022-10-21T07:58:55.542Z,44.33
2022-10-21T08:01:22.546Z,43.48
2022-10-21T08:03:49.824Z,43.52
2022-10-21T08:06:17.482Z,42.91
2022-10-21T08:08:45.238Z,43.87
2022-10-21T08:11:12.744Z,43.26
2022-10-21T08:13:41.661Z,42.52
2022-10-21T08:16:08.583Z,42.44
2022-10-21T08:18:38.150Z,42.77
2022-10-21T08:21:05.604Z,42.93
2022-10-21T08:23:32.943Z,41.86
2022-10-21T08:26:00.904Z,42.44
2022-10-21T08:28:29.327Z,42.80
2022-10-21T08:31:04.870Z,43.99
2022-10-21T08:33:32.270Z,43.72
2022-10-21T08:35:59.292Z,43.87
2022-10-21T08:38:26.314Z,42.87
2022-10-21T08:40:55.638Z,41.19
2022-10-21T08:43:24.865Z,41.67
2022-10-21T08:46:13.382Z,39.80
2022-10-21T08:48:43.976Z,38.16
2022-10-21T08:51:17.230Z,37.36
2022-10-21T08:53:46.110Z,37.93
2022-10-21T08:56:19.423Z,39.01
2022-10-21T08:58:48.085Z,37.15
2022-10-21T09:01:27.245Z,38.46
2022-10-21T09:04:02.316Z,36.35
2022-10-21T09:06:39.647Z,36.51
2022-10-21T09:09:28.424Z,37.74
2022-10-21T09:12:37.980Z,36.04
2022-10-21T09:15:11.192Z,36.34
2022-10-21T09:17:53.697Z,36.28
2022-10-21T09:20:34.472Z,34.77
2022-10-21T09:23:39.342Z,34.50
2022-10-21T09:26:41.723Z,34.87
2022-10-21T09:29:33.170Z,33.66
2022-10-21T09:32:09.699Z,33.54
2022-10-21T09:35:02.260Z,33.21
2022-10-21T09:37:36.097Z,32.63
2022-10-21T09:40:18.471Z,34.50
2022-10-21T09:42:47.815Z,33.97
2022-10-21T09:45:22.780Z,34.17
2022-10-21T09:47:54.977Z,32.42
2022-10-21T09:50:22.211Z,33.56
2022-10-21T09:52:53.422Z,32.27
2022-10-21T09:55:20.347Z,31.79
2022-10-21T09:58:25.453Z,32.50
2022-10-21T10:00:52.733Z,32.67
2022-10-21T10:03:33.107Z,32.09
2022-10-21T10:06:01.343Z,31.50
2022-10-21T10:08:29.061Z,29.92
2022-10-21T10:11:03.656Z,31.86
2022-10-21T10:13:32.254Z,31.70
2022-10-21T10:16:32.474Z,30.09
2022-10-21T10:19:16.120Z,31.91
2022-10-21T10:21:43.790Z,31.65
2022-10-21T10:24:18.815Z,28.85
2022-10-21T10:26:46.245Z,30.64
2022-10-21T10:29:16.725Z,29.70
2022-10-21T10:31:50.579Z,29.45
2022-10-21T10:34:55.129Z,29.83
2022-10-21T10:37:24.488Z,29.02
2022-10-21T10:39:53.506Z,28.13
2022-10-21T10:42:23.204Z,27.98
2022-10-21T10:44:54.990Z,28.34
2022-10-21T10:47:30.881Z,27.78
2022-10-21T10:49:58.125Z,26.48
2022-10-21T10:52:25.569Z,26.57
2022-10-21T10:55:10.806Z,26.07
2022-10-21T10:57:45.995Z,25.66
2022-10-21T11:00:25.376Z,25.84
2022-10-21T11:03:07.554Z,25.83
2022-10-21T11:05:42.800Z,26.09
2022-10-21T11:08:18.222Z,25.47
2022-10-21T11:10:49.434Z,23.48
2022-10-21T11:13:18.620Z,23.93
2022-10-21T11:15:51.768Z,23.94
2022-10-21T11:18:36.686Z,25.00
2022-10-21T11:21:22.649Z,26.11
2022-10-21T11:23:58.008Z,25.71
2022-10-21T11:26:29.125Z,23.23
2022-10-21T11:29:03.396Z,24.83
2022-10-21T11:31:53.874Z,25.24
2022-10-21T11:34:53.054Z,24.69
2022-10-21T11:37:45.760Z,25.07
2022-10-21T11:40:34.651Z,26.59
2022-10-21T11:43:35.925Z,26.06
2022-10-21T11:46:21.353Z,24.62
2022-10-21T11:48:57.239Z,25.41
2022-10-21T11:51:34.264Z,26.00
2022-10-21T11:54:10.849Z,26.48
2022-10-21T11:57:14.181Z,25.75
2022-10-21T11:59:52.429Z,27.05
2022-10-21T12:02:39.228Z,27.70
2022-10-21T12:05:22.914Z,28.10
2022-10-21T12:08:09.314Z,27.27
2022-10-21T12:10:43.281Z,26.84
2022-10-21T12:13:28.808Z,27.75
2022-10-21T12:16:05.456Z,27.79
2022-10-21T12:18:32.501Z,27.92
2022-10-21T12:21:02.286Z,28.18
2022-10-21T12:23:30.254Z,27.80
2022-10-21T12:26:20.115Z,28.49
2022-10-21T12:29:12.393Z,28.68
2022-10-21T12:31:45.660Z,28.48
2022-10-21T12:34:13.831Z,28.52
2022-10-21T12:36:45.760Z,29.15
2022-10-21T12:39:34.746Z,29.44
2022-10-21T12:42:16.401Z,28.05
2022-10-21T12:44:47.540Z,27.61
2022-10-21T12:47:35.063Z,28.06
2022-10-21T12:50:14.832Z,28.61
2022-10-21T12:52:42.306Z,28.24
2022-10-21T12:55:21.841Z,27.88
2022-10-21T12:57:56.927Z,28.19
2022-10-21T13:00:27.316Z,27.29
2022-10-21T13:03:06.362Z,27.81
2022-10-21T13:05:39.124Z,28.97
2022-10-21T13:08:22.941Z,29.57
2022-10-21T13:11:07.214Z,29.06
2022-10-21T13:13:41.650Z,29.15
2022-10-21T13:16:19.826Z,28.08
2022-10-21T13:18:58.376Z,27.95
2022-10-21T13:21:41.814Z,28.09
2022-10-21T13:24:13.570Z,29.39
2022-10-21T13:26:51.343Z,29.09
2022-10-21T13:29:28.393Z,29.47
2022-10-21T13:32:13.797Z,29.89
2022-10-21T13:34:42.789Z,30.63
2022-10-21T13:37:15.701Z,30.46
2022-10-21T13:39:43.113Z,31.08
2022-10-21T13:42:16.800Z,31.10
2022-10-21T13:44:53.508Z,31.63
2022-10-21T13:47:31.527Z,31.49
2022-10-21T13:50:13.657Z,31.79
2022-10-21T13:52:43.580Z,32.23
2022-10-21T13:55:18.720Z,32.08
2022-10-21T13:57:50.404Z,32.35
2022-10-21T14:00:22.248Z,32.15
2022-10-21T14:02:52.396Z,32.20
2022-10-21T14:05:30.543Z,32.05
2022-10-21T14:07:57.827Z,32.48
2022-10-21T14:10:24.840Z,32.43
2022-10-21T14:12:52.018Z,32.84
2022-10-21T14:15:22.202Z,33.41
2022-10-21T14:17:56.577Z,33.67
2022-10-21T14:20:29.862Z,33.96
2022-10-21T14:22:56.997Z,34.31
2022-10-21T14:25:24.730Z,34.80
2022-10-21T14:27:51.784Z,35.05
2022-10-21T14:30:23.459Z,35.47
2022-10-21T14:32:50.570Z,35.78
2022-10-21T14:35:21.219Z,36.12
2022-10-21T14:37:49.070Z,36.29
2022-10-21T14:40:35.861Z,36.52
2022-10-21T14:43:10.038Z,37.01
2022-10-21T14:45:46.245Z,37.65
2022-10-21T14:48:17.622Z,37.60
2022-10-21T14:50:52.941Z,37.88
2022-10-21T14:53:21.278Z,38.44
2022-10-21T14:55:48.529Z,38.67
2022-10-21T14:58:22.911Z,38.81
2022-10-21T15:01:01.406Z,39.25
2022-10-21T15:03:44.049Z,39.41
2022-10-21T15:06:23.867Z,39.67
2022-10-21T15:08:57.271Z,40.01
2022-10-21T15:11:28.935Z,40.13
2022-10-21T15:14:32.575Z,40.41
2022-10-21T15:17:02.185Z,40.79
2022-10-21T15:19:38.288Z,41.19
2022-10-21T15:22:05.710Z,41.69
2022-10-21T15:24:43.088Z,41.57
2022-10-21T15:27:18.962Z,41.85
2022-10-21T15:29:47.913Z,42.17
2022-10-21T15:32:19.200Z,42.41
2022-10-21T15:37:18.994Z,42.99
2022-10-21T15:39:46.120Z,43.10
2022-10-21T15:42:15.220Z,43.22
2022-10-21T15:44:42.633Z,43.50
2022-10-21T15:47:11.397Z,43.81
2022-10-21T15:49:41.344Z,43.83
2022-10-21T15:52:08.526Z,43.99
2022-10-21T15:54:35.746Z,44.22
2022-10-21T15:57:04.881Z,44.21
2022-10-21T15:59:33.755Z,44.49
2022-10-21T16:02:00.970Z,44.60
2022-10-21T16:04:28.440Z,44.51
2022-10-21T16:06:55.655Z,44.45
2022-10-21T16:09:25.386Z,44.62
2022-10-21T16:11:59.376Z,44.87
2022-10-21T16:14:30.048Z,45.02
2022-10-21T16:16:58.642Z,44.99
2022-10-21T16:19:25.711Z,45.16
2022-10-21T16:21:54.648Z,45.38
2022-10-21T16:24:21.884Z,45.13
2022-10-21T16:26:49.305Z,45.48
2022-10-21T16:31:52.068Z,45.55
2022-10-21T16:34:19.501Z,45.44
2022-10-21T16:36:46.637Z,45.58
2022-10-21T16:39:18.977Z,45.47
2022-10-21T16:41:46.550Z,45.88
2022-10-21T16:44:15.001Z,45.96
2022-10-21T16:47:03.514Z,46.52
2022-10-21T16:49:31.070Z,46.42
2022-10-21T16:52:00.526Z,46.23
2022-10-21T16:54:29.356Z,46.63
2022-10-21T16:56:56.568Z,46.34
2022-10-21T16:59:23.859Z,46.43
2022-10-21T17:01:51.876Z,47.13
2022-10-21T17:04:19.071Z,47.20
2022-10-21T17:06:46.519Z,47.26
2022-10-21T17:09:13.989Z,47.38
2022-10-21T17:12:12.650Z,48.28
2022-10-21T17:14:39.824Z,48.10
2022-10-21T17:17:07.074Z,47.84
2022-10-21T17:19:34.420Z,47.79
2022-10-21T17:22:01.619Z,48.41
2022-10-21T17:24:28.956Z,48.04
2022-10-21T17:26:57.562Z,48.58
2022-10-21T17:29:24.857Z,48.44
2022-10-21T17:31:52.058Z,48.53
2022-10-21T17:34:28.171Z,49.44
2022-10-21T17:36:55.424Z,50.55
2022-10-21T17:39:23.046Z,51.33
2022-10-21T17:41:50.449Z,51.41
2022-10-21T17:44:17.566Z,51.45
2022-10-21T17:46:47.698Z,51.92
2022-10-21T17:49:14.931Z,53.11
2022-10-21T17:51:42.876Z,52.63
2022-10-21T17:54:10.493Z,52.43
2022-10-21T17:56:38.385Z,52.10
2022-10-21T17:59:05.525Z,51.43
2022-10-21T18:01:33.306Z,51.41
2022-10-21T18:04:01.178Z,51.19
2022-10-21T18:06:29.920Z,50.81
2022-10-21T18:08:58.210Z,50.35
2022-10-21T18:11:25.494Z,50.80
2022-10-21T18:13:56.226Z,51.31
2022-10-21T18:16:23.753Z,51.98
2022-10-21T18:18:58.745Z,50.28
2022-10-21T18:21:29.971Z,51.51
2022-10-21T18:23:57.108Z,51.23
2022-10-21T18:26:25.985Z,51.28
2022-10-21T18:29:02.184Z,51.34
2022-10-21T18:31:31.638Z,52.21
2022-10-21T18:33:59.600Z,54.16
2022-10-21T18:36:27.220Z,53.68
2022-10-21T18:38:54.622Z,52.56
2022-10-21T18:41:23.001Z,53.77
2022-10-21T18:43:51.995Z,52.89
2022-10-21T18:46:19.994Z,53.67
2022-10-21T18:48:48.745Z,53.97
2022-10-21T18:51:20.258Z,53.98
2022-10-21T18:53:52.787Z,53.39
2022-10-21T18:56:21.652Z,54.44
2022-10-21T18:58:48.934Z,54.36
2022-10-21T19:01:19.451Z,54.25
2022-10-21T19:03:46.942Z,54.99
2022-10-21T19:06:46.166Z,55.14
2022-10-21T19:09:17.210Z,55.48
2022-10-21T19:11:46.919Z,56.41
2022-10-21T19:14:17.061Z,56.25
2022-10-21T19:16:48.315Z,56.39
2022-10-21T19:19:16.946Z,56.16
2022-10-21T19:21:44.270Z,56.65
2022-10-21T19:24:11.530Z,56.78
2022-10-21T19:26:40.501Z,57.45
2022-10-21T19:29:13.543Z,57.54
2022-10-21T19:31:42.296Z,57.88
2022-10-21T19:34:21.632Z,58.07
2022-10-21T19:36:50.055Z,57.64
2022-10-21T19:39:24.447Z,55.31
2022-10-21T19:41:51.565Z,54.70
2022-10-21T19:44:19.205Z,54.57
2022-10-21T19:46:46.714Z,54.64
2022-10-21T19:49:16.335Z,54.08
2022-10-21T19:51:45.173Z,54.89
2022-10-21T19:54:12.808Z,55.21
2022-10-21T19:56:40.123Z,55.79
2022-10-21T19:59:07.576Z,56.44
2022-10-21T20:01:35.241Z,56.29
2022-10-21T20:04:02.935Z,55.79
2022-10-21T20:06:34.384Z,55.83
2022-10-21T20:09:03.960Z,56.64
2022-10-21T20:11:35.959Z,57.27
2022-10-21T20:14:04.364Z,57.10
2022-10-21T20:16:38.055Z,56.46
2022-10-21T20:19:06.422Z,57.21
2022-10-21T20:21:35.871Z,56.76
2022-10-21T20:24:03.539Z,56.64
2022-10-21T20:26:34.285Z,56.96
2022-10-21T20:29:02.110Z,58.45
2022-10-21T20:31:29.577Z,57.46
2022-10-21T20:33:56.694Z,57.15
2022-10-21T20:36:25.396Z,56.77
2022-10-21T20:38:53.160Z,55.23
2022-10-21T20:41:22.676Z,55.96
2022-10-21T20:43:51.197Z,56.48
2022-10-21T20:46:19.015Z,56.46
2022-10-21T20:48:48.326Z,56.84
2022-10-21T20:51:19.609Z,57.83
2022-10-21T20:54:00.841Z,58.41
2022-10-21T20:56:32.377Z,59.00
2022-10-21T20:58:59.603Z,58.69
2022-10-21T21:01:33.494Z,57.25
2022-10-21T21:04:02.280Z,58.74
2022-10-21T21:06:29.803Z,59.66
2022-10-21T21:09:29.094Z,59.65
2022-10-21T21:11:46.569Z,56.72
2022-10-21T21:14:14.290Z,55.77
2022-10-21T21:16:43.309Z,55.92
2022-10-21T21:19:11.594Z,55.44
2022-10-21T21:22:53.182Z,54.90
2022-10-21T21:25:20.159Z,54.69
2022-10-21T21:27:47.082Z,54.87
2022-10-21T21:30:14.659Z,55.97
2022-10-21T21:32:42.029Z,56.07
2022-10-21T21:35:09.468Z,56.68
2022-10-21T21:37:36.512Z,55.63
2022-10-21T21:40:06.920Z,55.18
2022-10-21T21:42:34.430Z,55.26
2022-10-21T21:45:01.454Z,55.36
2022-10-21T21:47:28.469Z,56.11
2022-10-21T21:49:55.430Z,55.66
2022-10-21T21:52:22.873Z,56.04
2022-10-21T21:54:54.404Z,57.11
2022-10-21T21:57:27.915Z,57.20
2022-10-21T21:59:55.376Z,58.47
2022-10-21T22:02:22.387Z,58.75
2022-10-21T22:04:49.456Z,56.76
2022-10-21T22:07:16.524Z,55.21
2022-10-21T22:09:43.547Z,54.94
2022-10-21T22:12:14.400Z,55.02
2022-10-21T22:14:42.253Z,55.24
2022-10-21T22:17:09.185Z,55.71
2022-10-21T22:19:36.348Z,56.63
2022-10-21T22:22:03.636Z,56.26
2022-10-21T22:27:04.746Z,55.32
2022-10-21T22:29:31.825Z,55.10
2022-10-21T22:31:59.066Z,55.34
2022-10-21T22:34:26.060Z,55.87
2022-10-21T22:36:53.191Z,55.88
2022-10-21T22:39:20.083Z,55.96
2022-10-21T22:41:47.278Z,55.92
2022-10-21T22:44:14.678Z,56.42
2022-10-21T22:46:41.608Z,56.51
2022-10-21T22:49:09.925Z,56.88
2022-10-21T22:51:37.013Z,56.46
2022-10-21T22:54:05.617Z,56.85
2022-10-21T22:56:37.563Z,57.77
2022-10-21T22:59:05.325Z,57.95
2022-10-21T23:01:32.637Z,56.18
2022-10-21T23:04:03.775Z,55.16
2022-10-21T23:06:31.566Z,55.43
2022-10-21T23:09:01.065Z,55.04
2022-10-21T23:11:28.629Z,55.48
2022-10-21T23:14:03.480Z,55.78
2022-10-21T23:16:35.198Z,56.10
2022-10-21T23:19:02.474Z,56.16
2022-10-21T23:21:30.149Z,56.65
2022-10-21T23:23:57.278Z,56.46
2022-10-21T23:26:24.410Z,56.88
2022-10-21T23:28:51.361Z,56.70
2022-10-21T23:31:18.335Z,56.66
2022-10-21T23:33:45.510Z,57.50
2022-10-21T23:36:12.573Z,58.82
2022-10-21T23:38:39.595Z,58.36
2022-10-21T23:41:06.847Z,56.68
2022-10-21T23:43:33.740Z,55.52
2022-10-21T23:46:00.831Z,55.58
2022-10-21T23:48:27.967Z,55.38
2022-10-21T23:50:54.847Z,55.24
2022-10-21T23:53:22.285Z,55.49
2022-10-21T23:55:49.167Z,56.05
2022-10-21T23:58:16.169Z,56.01
